Ambrose, Georgia
Current Conditions -  °F | °C
As of 6:55 PM on Saturday 20 Dec 2014 (Local Time) from KDQH Reporting Station
Overcast Overcast  
Wind Chill: 13°   Ceiling: 6000
Heat Index: 13°   Visibility: 10mi
Dew Point: 11°   Wind: 7mph
Humidity: 88%   Direction: 50°NE
Pressure: 30.16"   Gusts: NA
Location:  31.59°N, 83.01°W
Report Text: KDQH 202355Z AUTO 05006KT 10SM BKN060 BKN100 OVC120 13/11 A3016 RMK AO2
Loading
Personal Weather Stations






























Interactive Weather Map New forecast layout! Learn more

10-Day Weather Forecast

Advertisements
Track Severe Weather on mobile